sensor_id;sensor_type;location;lat;lon;timestamp;P1;durP1;ratioP1;P2;durP2;ratioP2
25509;SDS011;13413;52.336;21.200;2022-09-21T00:00:13;13.50;;;11.70;;
25509;SDS011;13413;52.336;21.200;2022-09-21T00:03:32;16.70;;;11.50;;
25509;SDS011;13413;52.336;21.200;2022-09-21T00:06:51;16.50;;;12.30;;
25509;SDS011;13413;52.336;21.200;2022-09-21T00:10:18;16.20;;;11.40;;
25509;SDS011;13413;52.336;21.200;2022-09-21T00:13:52;16.30;;;11.60;;
25509;SDS011;13413;52.336;21.200;2022-09-21T00:17:13;13.60;;;11.90;;
25509;SDS011;13413;52.336;21.200;2022-09-21T00:20:32;22.20;;;13.30;;
25509;SDS011;13413;52.336;21.200;2022-09-21T00:23:52;15.30;;;12.80;;
25509;SDS011;13413;52.336;21.200;2022-09-21T00:27:12;18.80;;;13.60;;
25509;SDS011;13413;52.336;21.200;2022-09-21T00:30:32;17.40;;;13.80;;
25509;SDS011;13413;52.336;21.200;2022-09-21T00:33:51;16.70;;;13.60;;
25509;SDS011;13413;52.336;21.200;2022-09-21T00:37:11;16.70;;;13.80;;
25509;SDS011;13413;52.336;21.200;2022-09-21T00:40:30;18.70;;;14.20;;
25509;SDS011;13413;52.336;21.200;2022-09-21T00:47:50;17.10;;;14.80;;
25509;SDS011;13413;52.336;21.200;2022-09-21T00:51:10;21.40;;;14.60;;
25509;SDS011;13413;52.336;21.200;2022-09-21T00:54:39;16.60;;;13.60;;
25509;SDS011;13413;52.336;21.200;2022-09-21T00:58:03;18.30;;;13.80;;
25509;SDS011;13413;52.336;21.200;2022-09-21T01:01:26;20.00;;;15.70;;
25509;SDS011;13413;52.336;21.200;2022-09-21T01:04:45;19.20;;;15.60;;
25509;SDS011;13413;52.336;21.200;2022-09-21T01:08:19;19.70;;;15.10;;
25509;SDS011;13413;52.336;21.200;2022-09-21T01:11:44;16.90;;;15.10;;
25509;SDS011;13413;52.336;21.200;2022-09-21T01:15:28;17.40;;;15.00;;
25509;SDS011;13413;52.336;21.200;2022-09-21T01:18:57;19.20;;;15.60;;
25509;SDS011;13413;52.336;21.200;2022-09-21T01:22:47;24.50;;;17.20;;
25509;SDS011;13413;52.336;21.200;2022-09-21T01:26:27;24.30;;;18.90;;
25509;SDS011;13413;52.336;21.200;2022-09-21T01:39:16;19.80;;;15.60;;
25509;SDS011;13413;52.336;21.200;2022-09-21T01:42:46;21.70;;;15.00;;
25509;SDS011;13413;52.336;21.200;2022-09-21T01:46:10;17.80;;;15.60;;
25509;SDS011;13413;52.336;21.200;2022-09-21T01:49:49;22.10;;;16.10;;
25509;SDS011;13413;52.336;21.200;2022-09-21T01:53:27;18.30;;;15.40;;
25509;SDS011;13413;52.336;21.200;2022-09-21T01:56:53;21.10;;;16.10;;
25509;SDS011;13413;52.336;21.200;2022-09-21T02:00:24;21.20;;;16.20;;
25509;SDS011;13413;52.336;21.200;2022-09-21T02:05:20;17.40;;;15.40;;
25509;SDS011;13413;52.336;21.200;2022-09-21T02:08:43;18.30;;;13.60;;
25509;SDS011;13413;52.336;21.200;2022-09-21T02:12:03;16.60;;;13.80;;
25509;SDS011;13413;52.336;21.200;2022-09-21T02:15:25;18.60;;;15.40;;
25509;SDS011;13413;52.336;21.200;2022-09-21T02:19:08;18.40;;;14.50;;
25509;SDS011;13413;52.336;21.200;2022-09-21T02:22:32;16.70;;;14.70;;
25509;SDS011;13413;52.336;21.200;2022-09-21T02:25:58;22.20;;;15.40;;
25509;SDS011;13413;52.336;21.200;2022-09-21T02:29:39;19.60;;;14.90;;
25509;SDS011;13413;52.336;21.200;2022-09-21T02:33:21;20.40;;;14.60;;
25509;SDS011;13413;52.336;21.200;2022-09-21T02:36:47;18.40;;;14.40;;
25509;SDS011;13413;52.336;21.200;2022-09-21T02:40:12;19.90;;;14.30;;
25509;SDS011;13413;52.336;21.200;2022-09-21T02:43:56;24.80;;;15.10;;
25509;SDS011;13413;52.336;21.200;2022-09-21T02:47:27;17.80;;;14.50;;
25509;SDS011;13413;52.336;21.200;2022-09-21T02:55:22;19.90;;;14.50;;
25509;SDS011;13413;52.336;21.200;2022-09-21T02:58:45;21.30;;;15.30;;
25509;SDS011;13413;52.336;21.200;2022-09-21T03:02:06;19.90;;;15.60;;
25509;SDS011;13413;52.336;21.200;2022-09-21T03:05:28;22.80;;;16.20;;
25509;SDS011;13413;52.336;21.200;2022-09-21T03:09:02;19.30;;;16.00;;
25509;SDS011;13413;52.336;21.200;2022-09-21T03:12:21;23.40;;;15.30;;
25509;SDS011;13413;52.336;21.200;2022-09-21T03:15:41;22.70;;;16.00;;
25509;SDS011;13413;52.336;21.200;2022-09-21T03:19:13;20.00;;;14.70;;
25509;SDS011;13413;52.336;21.200;2022-09-21T03:22:39;16.60;;;13.90;;
25509;SDS011;13413;52.336;21.200;2022-09-21T03:25:58;17.90;;;14.70;;
25509;SDS011;13413;52.336;21.200;2022-09-21T03:29:35;20.70;;;14.80;;
25509;SDS011;13413;52.336;21.200;2022-09-21T03:33:07;20.50;;;14.50;;
25509;SDS011;13413;52.336;21.200;2022-09-21T03:36:28;18.40;;;14.40;;
25509;SDS011;13413;52.336;21.200;2022-09-21T03:44:37;17.50;;;14.60;;
25509;SDS011;13413;52.336;21.200;2022-09-21T03:47:58;15.10;;;13.50;;
25509;SDS011;13413;52.336;21.200;2022-09-21T03:51:17;16.70;;;13.10;;
25509;SDS011;13413;52.336;21.200;2022-09-21T03:54:51;18.90;;;12.40;;
25509;SDS011;13413;52.336;21.200;2022-09-21T03:58:24;14.40;;;12.80;;
25509;SDS011;13413;52.336;21.200;2022-09-21T04:01:43;20.00;;;13.60;;
25509;SDS011;13413;52.336;21.200;2022-09-21T04:05:16;22.10;;;13.60;;
25509;SDS011;13413;52.336;21.200;2022-09-21T04:08:49;17.00;;;12.90;;
25509;SDS011;13413;52.336;21.200;2022-09-21T04:12:08;16.80;;;12.70;;
25509;SDS011;13413;52.336;21.200;2022-09-21T04:20:11;14.40;;;12.50;;
25509;SDS011;13413;52.336;21.200;2022-09-21T04:23:31;15.30;;;12.90;;
25509;SDS011;13413;52.336;21.200;2022-09-21T04:26:52;16.00;;;13.60;;
25509;SDS011;13413;52.336;21.200;2022-09-21T04:39:25;15.00;;;12.70;;
25509;SDS011;13413;52.336;21.200;2022-09-21T04:42:50;14.20;;;11.90;;
25509;SDS011;13413;52.336;21.200;2022-09-21T04:46:11;14.80;;;13.10;;
25509;SDS011;13413;52.336;21.200;2022-09-21T04:49:47;18.50;;;14.40;;
25509;SDS011;13413;52.336;21.200;2022-09-21T04:53:20;25.10;;;18.00;;
25509;SDS011;13413;52.336;21.200;2022-09-21T04:56:40;19.40;;;15.30;;
25509;SDS011;13413;52.336;21.200;2022-09-21T05:00:14;17.50;;;13.40;;
25509;SDS011;13413;52.336;21.200;2022-09-21T05:03:34;16.20;;;12.20;;
25509;SDS011;13413;52.336;21.200;2022-09-21T05:07:00;12.80;;;11.00;;
25509;SDS011;13413;52.336;21.200;2022-09-21T05:10:26;12.90;;;10.80;;
25509;SDS011;13413;52.336;21.200;2022-09-21T05:24:15;10.00;;;8.40;;
25509;SDS011;13413;52.336;21.200;2022-09-21T05:27:35;10.80;;;8.50;;
25509;SDS011;13413;52.336;21.200;2022-09-21T05:30:57;10.80;;;9.00;;
25509;SDS011;13413;52.336;21.200;2022-09-21T05:34:37;11.50;;;8.50;;
25509;SDS011;13413;52.336;21.200;2022-09-21T05:38:20;18.10;;;10.50;;
25509;SDS011;13413;52.336;21.200;2022-09-21T05:41:40;14.60;;;9.50;;
25509;SDS011;13413;52.336;21.200;2022-09-21T05:45:15;9.20;;;7.00;;
25509;SDS011;13413;52.336;21.200;2022-09-21T05:59:14;10.20;;;7.00;;
25509;SDS011;13413;52.336;21.200;2022-09-21T06:03:02;9.20;;;8.10;;
25509;SDS011;13413;52.336;21.200;2022-09-21T06:19:50;13.80;;;6.10;;
25509;SDS011;13413;52.336;21.200;2022-09-21T06:23:10;8.10;;;6.80;;
25509;SDS011;13413;52.336;21.200;2022-09-21T06:26:30;7.80;;;6.50;;
25509;SDS011;13413;52.336;21.200;2022-09-21T06:30:05;8.90;;;5.60;;
25509;SDS011;13413;52.336;21.200;2022-09-21T06:34:59;8.40;;;6.00;;
25509;SDS011;13413;52.336;21.200;2022-09-21T06:38:19;6.80;;;6.10;;
25509;SDS011;13413;52.336;21.200;2022-09-21T06:41:40;8.00;;;5.60;;
25509;SDS011;13413;52.336;21.200;2022-09-21T06:44:59;9.70;;;5.90;;
25509;SDS011;13413;52.336;21.200;2022-09-21T06:48:19;7.50;;;5.90;;
25509;SDS011;13413;52.336;21.200;2022-09-21T06:51:52;6.80;;;5.30;;
25509;SDS011;13413;52.336;21.200;2022-09-21T06:55:26;8.50;;;4.50;;
25509;SDS011;13413;52.336;21.200;2022-09-21T06:59:00;6.80;;;4.80;;
25509;SDS011;13413;52.336;21.200;2022-09-21T07:02:20;7.10;;;5.50;;
25509;SDS011;13413;52.336;21.200;2022-09-21T07:05:40;6.80;;;4.80;;
25509;SDS011;13413;52.336;21.200;2022-09-21T07:09:03;10.30;;;8.60;;
25509;SDS011;13413;52.336;21.200;2022-09-21T07:12:37;5.40;;;4.60;;
25509;SDS011;13413;52.336;21.200;2022-09-21T07:15:56;6.30;;;4.60;;
25509;SDS011;13413;52.336;21.200;2022-09-21T07:19:33;5.60;;;3.80;;
25509;SDS011;13413;52.336;21.200;2022-09-21T07:23:11;3.90;;;3.50;;
25509;SDS011;13413;52.336;21.200;2022-09-21T07:26:36;5.30;;;3.60;;
25509;SDS011;13413;52.336;21.200;2022-09-21T07:39:15;6.50;;;3.60;;
25509;SDS011;13413;52.336;21.200;2022-09-21T07:42:35;3.40;;;3.00;;
25509;SDS011;13413;52.336;21.200;2022-09-21T07:45:54;3.60;;;3.20;;
25509;SDS011;13413;52.336;21.200;2022-09-21T07:49:28;3.90;;;3.30;;
25509;SDS011;13413;52.336;21.200;2022-09-21T07:52:48;5.70;;;3.20;;
25509;SDS011;13413;52.336;21.200;2022-09-21T07:56:07;5.30;;;3.30;;
25509;SDS011;13413;52.336;21.200;2022-09-21T07:59:42;3.70;;;3.20;;
25509;SDS011;13413;52.336;21.200;2022-09-21T08:03:01;5.50;;;3.50;;
25509;SDS011;13413;52.336;21.200;2022-09-21T08:06:20;5.10;;;3.70;;
25509;SDS011;13413;52.336;21.200;2022-09-21T08:09:56;6.90;;;3.80;;
25509;SDS011;13413;52.336;21.200;2022-09-21T08:13:15;6.40;;;4.40;;
25509;SDS011;13413;52.336;21.200;2022-09-21T08:16:34;7.80;;;4.80;;
25509;SDS011;13413;52.336;21.200;2022-09-21T08:19:57;7.40;;;4.60;;
25509;SDS011;13413;52.336;21.200;2022-09-21T08:23:30;6.20;;;4.60;;
25509;SDS011;13413;52.336;21.200;2022-09-21T08:26:49;6.20;;;5.20;;
25509;SDS011;13413;52.336;21.200;2022-09-21T08:30:17;5.60;;;4.80;;
25509;SDS011;13413;52.336;21.200;2022-09-21T08:33:36;5.20;;;4.70;;
25509;SDS011;13413;52.336;21.200;2022-09-21T08:40:27;6.60;;;4.90;;
25509;SDS011;13413;52.336;21.200;2022-09-21T08:44:02;9.50;;;5.30;;
25509;SDS011;13413;52.336;21.200;2022-09-21T08:47:36;13.30;;;6.60;;
25509;SDS011;13413;52.336;21.200;2022-09-21T08:51:09;11.70;;;5.10;;
25509;SDS011;13413;52.336;21.200;2022-09-21T08:54:37;13.70;;;5.80;;
25509;SDS011;13413;52.336;21.200;2022-09-21T08:57:59;6.70;;;5.30;;
25509;SDS011;13413;52.336;21.200;2022-09-21T09:01:29;5.80;;;5.10;;
25509;SDS011;13413;52.336;21.200;2022-09-21T09:05:35;7.20;;;4.90;;
25509;SDS011;13413;52.336;21.200;2022-09-21T09:09:11;5.10;;;4.60;;
25509;SDS011;13413;52.336;21.200;2022-09-21T09:13:08;5.00;;;4.20;;
25509;SDS011;13413;52.336;21.200;2022-09-21T09:16:41;5.80;;;4.80;;
25509;SDS011;13413;52.336;21.200;2022-09-21T09:20:19;6.80;;;4.80;;
25509;SDS011;13413;52.336;21.200;2022-09-21T09:23:57;7.20;;;5.20;;
25509;SDS011;13413;52.336;21.200;2022-09-21T09:27:31;8.90;;;4.60;;
25509;SDS011;13413;52.336;21.200;2022-09-21T09:35:23;4.50;;;4.10;;
25509;SDS011;13413;52.336;21.200;2022-09-21T09:38:48;9.10;;;4.30;;
25509;SDS011;13413;52.336;21.200;2022-09-21T09:46:09;6.10;;;4.20;;
25509;SDS011;13413;52.336;21.200;2022-09-21T09:49:54;22.40;;;6.50;;
25509;SDS011;13413;52.336;21.200;2022-09-21T09:53:32;8.40;;;5.70;;
25509;SDS011;13413;52.336;21.200;2022-09-21T09:56:53;4.70;;;4.30;;
25509;SDS011;13413;52.336;21.200;2022-09-21T10:00:29;5.60;;;4.30;;
25509;SDS011;13413;52.336;21.200;2022-09-21T10:03:58;6.90;;;3.70;;
25509;SDS011;13413;52.336;21.200;2022-09-21T10:07:38;12.80;;;4.90;;
25509;SDS011;13413;52.336;21.200;2022-09-21T10:11:01;7.00;;;5.10;;
25509;SDS011;13413;52.336;21.200;2022-09-21T10:14:36;7.30;;;4.40;;
25509;SDS011;13413;52.336;21.200;2022-09-21T10:18:13;5.70;;;3.80;;
25509;SDS011;13413;52.336;21.200;2022-09-21T10:21:38;7.50;;;3.60;;
25509;SDS011;13413;52.336;21.200;2022-09-21T10:34:18;6.20;;;3.90;;
25509;SDS011;13413;52.336;21.200;2022-09-21T10:37:38;5.30;;;3.00;;
25509;SDS011;13413;52.336;21.200;2022-09-21T10:40:58;3.80;;;3.40;;
25509;SDS011;13413;52.336;21.200;2022-09-21T10:44:39;4.80;;;3.30;;
25509;SDS011;13413;52.336;21.200;2022-09-21T10:48:15;7.00;;;3.40;;
25509;SDS011;13413;52.336;21.200;2022-09-21T10:51:37;6.20;;;3.30;;
25509;SDS011;13413;52.336;21.200;2022-09-21T10:55:15;3.40;;;3.10;;
25509;SDS011;13413;52.336;21.200;2022-09-21T11:00:27;6.00;;;4.60;;
25509;SDS011;13413;52.336;21.200;2022-09-21T11:07:26;5.60;;;4.10;;
25509;SDS011;13413;52.336;21.200;2022-09-21T11:10:49;5.40;;;3.40;;
25509;SDS011;13413;52.336;21.200;2022-09-21T11:14:25;3.50;;;3.20;;
25509;SDS011;13413;52.336;21.200;2022-09-21T11:18:05;5.60;;;3.10;;
25509;SDS011;13413;52.336;21.200;2022-09-21T11:21:33;5.40;;;3.20;;
25509;SDS011;13413;52.336;21.200;2022-09-21T11:25:17;4.50;;;3.00;;
25509;SDS011;13413;52.336;21.200;2022-09-21T11:28:44;3.60;;;3.00;;
25509;SDS011;13413;52.336;21.200;2022-09-21T11:32:30;6.00;;;3.10;;
25509;SDS011;13413;52.336;21.200;2022-09-21T11:45:01;2.20;;;2.00;;
25509;SDS011;13413;52.336;21.200;2022-09-21T11:48:25;7.20;;;2.50;;
25509;SDS011;13413;52.336;21.200;2022-09-21T11:52:07;11.30;;;2.30;;
25509;SDS011;13413;52.336;21.200;2022-09-21T11:55:59;12.90;;;2.50;;
25509;SDS011;13413;52.336;21.200;2022-09-21T11:59:40;4.10;;;1.70;;
25509;SDS011;13413;52.336;21.200;2022-09-21T12:03:16;11.10;;;2.50;;
25509;SDS011;13413;52.336;21.200;2022-09-21T12:06:52;4.80;;;1.80;;
25509;SDS011;13413;52.336;21.200;2022-09-21T12:14:16;33.40;;;3.30;;
25509;SDS011;13413;52.336;21.200;2022-09-21T12:17:57;4.50;;;1.40;;
25509;SDS011;13413;52.336;21.200;2022-09-21T12:21:32;2.60;;;1.30;;
25509;SDS011;13413;52.336;21.200;2022-09-21T12:25:13;10.30;;;1.70;;
25509;SDS011;13413;52.336;21.200;2022-09-21T12:28:51;2.20;;;1.40;;
25509;SDS011;13413;52.336;21.200;2022-09-21T12:32:17;6.00;;;1.70;;
25509;SDS011;13413;52.336;21.200;2022-09-21T12:49:16;2.30;;;1.40;;
25509;SDS011;13413;52.336;21.200;2022-09-21T12:52:46;2.10;;;1.50;;
25509;SDS011;13413;52.336;21.200;2022-09-21T12:56:08;1.90;;;1.20;;
25509;SDS011;13413;52.336;21.200;2022-09-21T12:59:52;2.20;;;1.50;;
25509;SDS011;13413;52.336;21.200;2022-09-21T13:03:34;5.50;;;1.70;;
25509;SDS011;13413;52.336;21.200;2022-09-21T13:10:47;5.40;;;1.60;;
25509;SDS011;13413;52.336;21.200;2022-09-21T13:14:28;2.00;;;1.50;;
25509;SDS011;13413;52.336;21.200;2022-09-21T13:18:05;11.20;;;1.80;;
25509;SDS011;13413;52.336;21.200;2022-09-21T13:21:33;22.60;;;2.70;;
25509;SDS011;13413;52.336;21.200;2022-09-21T13:41:44;13.10;;;3.00;;
25509;SDS011;13413;52.336;21.200;2022-09-21T14:04:05;7.70;;;2.50;;
25509;SDS011;13413;52.336;21.200;2022-09-21T14:07:37;2.40;;;1.80;;
25509;SDS011;13413;52.336;21.200;2022-09-21T14:10:57;20.20;;;3.10;;
25509;SDS011;13413;52.336;21.200;2022-09-21T14:14:33;4.80;;;1.90;;
25509;SDS011;13413;52.336;21.200;2022-09-21T14:18:33;2.90;;;2.20;;
25509;SDS011;13413;52.336;21.200;2022-09-21T14:39:20;5.20;;;2.20;;
25509;SDS011;13413;52.336;21.200;2022-09-21T14:42:47;8.80;;;2.50;;
25509;SDS011;13413;52.336;21.200;2022-09-21T14:46:30;19.60;;;8.10;;
25509;SDS011;13413;52.336;21.200;2022-09-21T15:00:09;14.50;;;6.00;;
25509;SDS011;13413;52.336;21.200;2022-09-21T15:03:39;10.40;;;4.90;;
25509;SDS011;13413;52.336;21.200;2022-09-21T15:07:14;11.20;;;3.20;;
25509;SDS011;13413;52.336;21.200;2022-09-21T15:10:52;6.10;;;3.00;;
25509;SDS011;13413;52.336;21.200;2022-09-21T15:14:25;6.70;;;2.70;;
25509;SDS011;13413;52.336;21.200;2022-09-21T15:17:54;4.20;;;3.40;;
25509;SDS011;13413;52.336;21.200;2022-09-21T15:25:02;13.60;;;3.90;;
25509;SDS011;13413;52.336;21.200;2022-09-21T15:28:31;4.20;;;2.40;;
25509;SDS011;13413;52.336;21.200;2022-09-21T15:31:53;12.10;;;2.60;;
25509;SDS011;13413;52.336;21.200;2022-09-21T15:35:19;10.10;;;2.90;;
25509;SDS011;13413;52.336;21.200;2022-09-21T15:38:46;22.60;;;5.20;;
25509;SDS011;13413;52.336;21.200;2022-09-21T15:42:15;4.40;;;2.50;;
25509;SDS011;13413;52.336;21.200;2022-09-21T15:45:46;7.90;;;3.60;;
25509;SDS011;13413;52.336;21.200;2022-09-21T15:49:21;8.40;;;3.00;;
25509;SDS011;13413;52.336;21.200;2022-09-21T15:56:04;5.50;;;2.50;;
25509;SDS011;13413;52.336;21.200;2022-09-21T15:59:46;8.00;;;3.00;;
25509;SDS011;13413;52.336;21.200;2022-09-21T16:03:20;11.70;;;3.80;;
25509;SDS011;13413;52.336;21.200;2022-09-21T16:06:43;3.80;;;2.60;;
25509;SDS011;13413;52.336;21.200;2022-09-21T16:10:37;8.10;;;4.10;;
25509;SDS011;13413;52.336;21.200;2022-09-21T16:14:13;3.90;;;2.40;;
25509;SDS011;13413;52.336;21.200;2022-09-21T16:17:51;4.40;;;2.90;;
25509;SDS011;13413;52.336;21.200;2022-09-21T16:25:45;21.90;;;13.30;;
25509;SDS011;13413;52.336;21.200;2022-09-21T16:29:17;18.00;;;10.10;;
25509;SDS011;13413;52.336;21.200;2022-09-21T16:32:44;27.50;;;16.90;;
25509;SDS011;13413;52.336;21.200;2022-09-21T16:36:10;25.30;;;16.60;;
25509;SDS011;13413;52.336;21.200;2022-09-21T16:40:13;20.00;;;11.90;;
25509;SDS011;13413;52.336;21.200;2022-09-21T16:43:46;17.40;;;9.80;;
25509;SDS011;13413;52.336;21.200;2022-09-21T16:47:09;14.60;;;6.60;;
25509;SDS011;13413;52.336;21.200;2022-09-21T16:50:36;15.40;;;6.50;;
25509;SDS011;13413;52.336;21.200;2022-09-21T16:53:56;16.70;;;6.80;;
25509;SDS011;13413;52.336;21.200;2022-09-21T16:57:15;9.70;;;5.80;;
25509;SDS011;13413;52.336;21.200;2022-09-21T17:00:36;7.90;;;5.70;;
25509;SDS011;13413;52.336;21.200;2022-09-21T17:04:13;24.00;;;12.70;;
25509;SDS011;13413;52.336;21.200;2022-09-21T17:07:39;13.20;;;9.90;;
25509;SDS011;13413;52.336;21.200;2022-09-21T17:11:11;13.40;;;10.30;;
25509;SDS011;13413;52.336;21.200;2022-09-21T17:14:38;23.20;;;16.60;;
25509;SDS011;13413;52.336;21.200;2022-09-21T17:18:12;15.00;;;11.90;;
25509;SDS011;13413;52.336;21.200;2022-09-21T17:21:31;14.20;;;10.60;;
25509;SDS011;13413;52.336;21.200;2022-09-21T17:29:41;17.90;;;11.70;;
25509;SDS011;13413;52.336;21.200;2022-09-21T17:33:01;14.30;;;10.20;;
25509;SDS011;13413;52.336;21.200;2022-09-21T17:36:20;23.80;;;16.90;;
25509;SDS011;13413;52.336;21.200;2022-09-21T17:40:02;39.90;;;32.60;;
25509;SDS011;13413;52.336;21.200;2022-09-21T17:43:29;54.80;;;43.80;;
25509;SDS011;13413;52.336;21.200;2022-09-21T17:46:55;52.20;;;40.00;;
25509;SDS011;13413;52.336;21.200;2022-09-21T17:50:24;43.70;;;33.80;;
25509;SDS011;13413;52.336;21.200;2022-09-21T17:53:59;41.40;;;33.80;;
25509;SDS011;13413;52.336;21.200;2022-09-21T17:57:43;44.50;;;32.20;;
25509;SDS011;13413;52.336;21.200;2022-09-21T18:01:12;41.80;;;30.80;;
25509;SDS011;13413;52.336;21.200;2022-09-21T18:04:52;37.10;;;26.50;;
25509;SDS011;13413;52.336;21.200;2022-09-21T18:08:31;44.80;;;30.20;;
25509;SDS011;13413;52.336;21.200;2022-09-21T18:11:57;40.50;;;27.70;;
25509;SDS011;13413;52.336;21.200;2022-09-21T18:15:26;47.00;;;29.60;;
25509;SDS011;13413;52.336;21.200;2022-09-21T18:19:12;49.00;;;30.20;;
25509;SDS011;13413;52.336;21.200;2022-09-21T18:22:42;62.50;;;34.40;;
25509;SDS011;13413;52.336;21.200;2022-09-21T18:26:12;75.60;;;39.20;;
25509;SDS011;13413;52.336;21.200;2022-09-21T18:29:46;47.20;;;30.30;;
25509;SDS011;13413;52.336;21.200;2022-09-21T18:33:22;32.20;;;23.50;;
25509;SDS011;13413;52.336;21.200;2022-09-21T18:36:53;30.10;;;21.30;;
25509;SDS011;13413;52.336;21.200;2022-09-21T18:40:31;24.20;;;16.50;;
25509;SDS011;13413;52.336;21.200;2022-09-21T18:44:12;30.30;;;19.90;;
25509;SDS011;13413;52.336;21.200;2022-09-21T18:47:46;29.50;;;19.90;;
25509;SDS011;13413;52.336;21.200;2022-09-21T19:03:35;24.50;;;16.30;;
25509;SDS011;13413;52.336;21.200;2022-09-21T19:07:11;26.40;;;21.10;;
25509;SDS011;13413;52.336;21.200;2022-09-21T19:24:16;39.00;;;23.90;;
25509;SDS011;13413;52.336;21.200;2022-09-21T19:27:51;24.00;;;17.40;;
25509;SDS011;13413;52.336;21.200;2022-09-21T19:31:15;22.20;;;14.40;;
25509;SDS011;13413;52.336;21.200;2022-09-21T19:34:49;19.80;;;11.80;;
25509;SDS011;13413;52.336;21.200;2022-09-21T19:38:23;22.90;;;14.20;;
25509;SDS011;13413;52.336;21.200;2022-09-21T19:41:46;25.00;;;17.10;;
25509;SDS011;13413;52.336;21.200;2022-09-21T19:45:14;30.60;;;24.10;;
25509;SDS011;13413;52.336;21.200;2022-09-21T19:48:49;23.50;;;16.20;;
25509;SDS011;13413;52.336;21.200;2022-09-21T19:52:15;18.20;;;12.40;;
25509;SDS011;13413;52.336;21.200;2022-09-21T19:55:36;17.20;;;11.20;;
25509;SDS011;13413;52.336;21.200;2022-09-21T19:58:56;16.10;;;11.70;;
25509;SDS011;13413;52.336;21.200;2022-09-21T20:02:32;19.10;;;13.60;;
25509;SDS011;13413;52.336;21.200;2022-09-21T20:05:56;19.00;;;12.30;;
25509;SDS011;13413;52.336;21.200;2022-09-21T20:12:42;15.00;;;9.90;;
25509;SDS011;13413;52.336;21.200;2022-09-21T20:16:23;15.40;;;10.00;;
25509;SDS011;13413;52.336;21.200;2022-09-21T20:20:02;14.30;;;9.20;;
25509;SDS011;13413;52.336;21.200;2022-09-21T20:23:43;14.00;;;8.40;;
25509;SDS011;13413;52.336;21.200;2022-09-21T20:27:09;12.50;;;8.40;;
25509;SDS011;13413;52.336;21.200;2022-09-21T20:30:36;13.40;;;8.40;;
25509;SDS011;13413;52.336;21.200;2022-09-21T20:34:04;16.50;;;8.80;;
25509;SDS011;13413;52.336;21.200;2022-09-21T20:37:23;13.80;;;8.70;;
25509;SDS011;13413;52.336;21.200;2022-09-21T20:40:42;13.30;;;8.60;;
25509;SDS011;13413;52.336;21.200;2022-09-21T20:44:02;11.70;;;7.40;;
25509;SDS011;13413;52.336;21.200;2022-09-21T20:47:37;10.10;;;6.80;;
25509;SDS011;13413;52.336;21.200;2022-09-21T20:55:28;12.00;;;6.00;;
25509;SDS011;13413;52.336;21.200;2022-09-21T20:58:48;10.60;;;5.90;;
25509;SDS011;13413;52.336;21.200;2022-09-21T21:02:09;9.60;;;6.10;;
25509;SDS011;13413;52.336;21.200;2022-09-21T21:05:36;13.70;;;6.70;;
25509;SDS011;13413;52.336;21.200;2022-09-21T21:09:09;12.40;;;6.00;;
25509;SDS011;13413;52.336;21.200;2022-09-21T21:12:29;9.60;;;6.00;;
25509;SDS011;13413;52.336;21.200;2022-09-21T21:15:52;8.80;;;5.80;;
25509;SDS011;13413;52.336;21.200;2022-09-21T21:33:59;6.90;;;5.20;;
25509;SDS011;13413;52.336;21.200;2022-09-21T21:37:25;7.30;;;5.10;;
25509;SDS011;13413;52.336;21.200;2022-09-21T21:40:45;6.20;;;4.70;;
25509;SDS011;13413;52.336;21.200;2022-09-21T21:44:04;9.10;;;5.80;;
25509;SDS011;13413;52.336;21.200;2022-09-21T21:47:24;9.50;;;5.80;;
25509;SDS011;13413;52.336;21.200;2022-09-21T21:50:44;8.60;;;6.20;;
25509;SDS011;13413;52.336;21.200;2022-09-21T22:00:07;12.20;;;7.40;;
25509;SDS011;13413;52.336;21.200;2022-09-21T22:03:30;12.70;;;8.40;;
25509;SDS011;13413;52.336;21.200;2022-09-21T22:06:50;12.10;;;8.80;;
25509;SDS011;13413;52.336;21.200;2022-09-21T22:10:16;10.80;;;8.00;;
25509;SDS011;13413;52.336;21.200;2022-09-21T22:13:50;12.80;;;8.30;;
25509;SDS011;13413;52.336;21.200;2022-09-21T22:17:10;12.90;;;9.10;;
25509;SDS011;13413;52.336;21.200;2022-09-21T22:25:13;10.10;;;7.30;;
25509;SDS011;13413;52.336;21.200;2022-09-21T22:28:33;8.30;;;5.90;;
25509;SDS011;13413;52.336;21.200;2022-09-21T22:32:01;9.30;;;5.50;;
25509;SDS011;13413;52.336;21.200;2022-09-21T22:40:57;7.40;;;5.40;;
25509;SDS011;13413;52.336;21.200;2022-09-21T22:44:21;7.10;;;5.70;;
25509;SDS011;13413;52.336;21.200;2022-09-21T22:51:26;7.10;;;5.60;;
25509;SDS011;13413;52.336;21.200;2022-09-21T22:54:52;7.50;;;5.40;;
25509;SDS011;13413;52.336;21.200;2022-09-21T22:58:11;6.80;;;5.30;;
25509;SDS011;13413;52.336;21.200;2022-09-21T23:01:30;5.70;;;4.20;;
25509;SDS011;13413;52.336;21.200;2022-09-21T23:09:43;7.80;;;5.30;;
25509;SDS011;13413;52.336;21.200;2022-09-21T23:13:03;8.50;;;4.70;;
25509;SDS011;13413;52.336;21.200;2022-09-21T23:16:22;6.00;;;4.60;;
25509;SDS011;13413;52.336;21.200;2022-09-21T23:19:42;4.80;;;4.30;;
25509;SDS011;13413;52.336;21.200;2022-09-21T23:23:01;6.90;;;4.90;;
25509;SDS011;13413;52.336;21.200;2022-09-21T23:26:21;7.50;;;4.70;;
25509;SDS011;13413;52.336;21.200;2022-09-21T23:29:41;7.10;;;4.80;;
25509;SDS011;13413;52.336;21.200;2022-09-21T23:33:01;6.10;;;4.40;;
25509;SDS011;13413;52.336;21.200;2022-09-21T23:36:21;5.20;;;4.30;;
25509;SDS011;13413;52.336;21.200;2022-09-21T23:39:41;6.40;;;4.80;;
25509;SDS011;13413;52.336;21.200;2022-09-21T23:43:01;7.20;;;5.30;;
25509;SDS011;13413;52.336;21.200;2022-09-21T23:46:20;6.00;;;5.00;;
25509;SDS011;13413;52.336;21.200;2022-09-21T23:49:43;6.20;;;4.70;;
25509;SDS011;13413;52.336;21.200;2022-09-21T23:53:03;9.10;;;5.50;;
25509;SDS011;13413;52.336;21.200;2022-09-21T23:56:22;9.50;;;5.50;;
